sensor_id;sensor_type;location;lat;lon;timestamp;temperature;humidity
15328;DHT22;7764;51.430;6.840;2022-12-05T00:01:19;3.80;99.90
15328;DHT22;7764;51.430;6.840;2022-12-05T00:03:48;3.80;99.90
15328;DHT22;7764;51.430;6.840;2022-12-05T00:06:16;3.80;99.90
15328;DHT22;7764;51.430;6.840;2022-12-05T00:08:45;3.80;99.90
15328;DHT22;7764;51.430;6.840;2022-12-05T00:11:13;3.90;99.90
15328;DHT22;7764;51.430;6.840;2022-12-05T00:13:40;3.90;99.90
15328;DHT22;7764;51.430;6.840;2022-12-05T00:16:08;3.90;99.90
15328;DHT22;7764;51.430;6.840;2022-12-05T00:18:36;3.90;99.90
15328;DHT22;7764;51.430;6.840;2022-12-05T00:21:03;3.90;99.90
15328;DHT22;7764;51.430;6.840;2022-12-05T00:23:30;3.90;99.90
15328;DHT22;7764;51.430;6.840;2022-12-05T00:26:00;3.90;99.90
15328;DHT22;7764;51.430;6.840;2022-12-05T00:28:27;3.90;99.90
15328;DHT22;7764;51.430;6.840;2022-12-05T00:30:54;3.90;99.90
15328;DHT22;7764;51.430;6.840;2022-12-05T00:33:21;3.90;99.90
15328;DHT22;7764;51.430;6.840;2022-12-05T00:35:48;3.90;99.90
15328;DHT22;7764;51.430;6.840;2022-12-05T00:38:15;3.90;99.90
15328;DHT22;7764;51.430;6.840;2022-12-05T00:40:42;3.90;99.90
15328;DHT22;7764;51.430;6.840;2022-12-05T00:43:10;3.90;99.90
15328;DHT22;7764;51.430;6.840;2022-12-05T00:45:37;3.90;99.90
15328;DHT22;7764;51.430;6.840;2022-12-05T00:48:04;3.90;99.90
15328;DHT22;7764;51.430;6.840;2022-12-05T00:50:31;3.90;99.90
15328;DHT22;7764;51.430;6.840;2022-12-05T00:52:57;3.90;99.90
15328;DHT22;7764;51.430;6.840;2022-12-05T00:55:24;3.90;99.90
15328;DHT22;7764;51.430;6.840;2022-12-05T00:57:51;3.90;99.90
15328;DHT22;7764;51.430;6.840;2022-12-05T01:00:20;3.90;99.90
15328;DHT22;7764;51.430;6.840;2022-12-05T01:02:46;4.00;99.90
15328;DHT22;7764;51.430;6.840;2022-12-05T01:05:13;4.00;99.90
15328;DHT22;7764;51.430;6.840;2022-12-05T01:07:40;3.90;99.90
15328;DHT22;7764;51.430;6.840;2022-12-05T01:10:07;3.90;99.90
15328;DHT22;7764;51.430;6.840;2022-12-05T01:12:34;3.90;99.90
15328;DHT22;7764;51.430;6.840;2022-12-05T01:15:01;4.00;99.90
15328;DHT22;7764;51.430;6.840;2022-12-05T01:17:29;4.00;99.90
15328;DHT22;7764;51.430;6.840;2022-12-05T01:19:56;4.00;99.90
15328;DHT22;7764;51.430;6.840;2022-12-05T01:22:23;4.00;99.90
15328;DHT22;7764;51.430;6.840;2022-12-05T01:24:50;4.00;99.90
15328;DHT22;7764;51.430;6.840;2022-12-05T01:27:16;4.00;99.90
15328;DHT22;7764;51.430;6.840;2022-12-05T01:29:43;4.00;99.90
15328;DHT22;7764;51.430;6.840;2022-12-05T01:32:10;4.00;99.90
15328;DHT22;7764;51.430;6.840;2022-12-05T01:34:38;4.00;99.90
15328;DHT22;7764;51.430;6.840;2022-12-05T01:37:05;4.00;99.90
15328;DHT22;7764;51.430;6.840;2022-12-05T01:39:32;4.00;99.90
15328;DHT22;7764;51.430;6.840;2022-12-05T01:41:58;4.10;99.90
15328;DHT22;7764;51.430;6.840;2022-12-05T01:47:31;4.10;99.90
15328;DHT22;7764;51.430;6.840;2022-12-05T01:50:00;4.10;99.90
15328;DHT22;7764;51.430;6.840;2022-12-05T01:52:28;4.10;99.90
15328;DHT22;7764;51.430;6.840;2022-12-05T01:54:58;4.10;99.90
15328;DHT22;7764;51.430;6.840;2022-12-05T01:57:25;4.00;99.90
15328;DHT22;7764;51.430;6.840;2022-12-05T01:59:56;4.00;99.90
15328;DHT22;7764;51.430;6.840;2022-12-05T02:02:24;4.10;99.90
15328;DHT22;7764;51.430;6.840;2022-12-05T02:05:00;4.00;99.90
15328;DHT22;7764;51.430;6.840;2022-12-05T02:07:28;4.00;99.90
15328;DHT22;7764;51.430;6.840;2022-12-05T02:09:55;4.00;99.90
15328;DHT22;7764;51.430;6.840;2022-12-05T02:12:22;4.10;99.90
15328;DHT22;7764;51.430;6.840;2022-12-05T02:14:58;4.00;99.90
15328;DHT22;7764;51.430;6.840;2022-12-05T02:17:37;3.90;99.90
15328;DHT22;7764;51.430;6.840;2022-12-05T02:20:18;4.00;99.90
15328;DHT22;7764;51.430;6.840;2022-12-05T02:23:18;4.10;99.90
15328;DHT22;7764;51.430;6.840;2022-12-05T02:28:48;4.10;99.90
15328;DHT22;7764;51.430;6.840;2022-12-05T02:31:26;4.10;99.90
15328;DHT22;7764;51.430;6.840;2022-12-05T02:34:01;4.10;99.90
15328;DHT22;7764;51.430;6.840;2022-12-05T02:36:37;4.10;99.90
15328;DHT22;7764;51.430;6.840;2022-12-05T02:39:11;4.00;99.90
15328;DHT22;7764;51.430;6.840;2022-12-05T02:41:47;4.00;99.90
15328;DHT22;7764;51.430;6.840;2022-12-05T02:44:20;4.10;99.90
15328;DHT22;7764;51.430;6.840;2022-12-05T02:46:51;4.10;99.90
15328;DHT22;7764;51.430;6.840;2022-12-05T02:49:22;4.10;99.90
15328;DHT22;7764;51.430;6.840;2022-12-05T02:51:55;4.10;99.90
15328;DHT22;7764;51.430;6.840;2022-12-05T02:54:24;4.10;99.90
15328;DHT22;7764;51.430;6.840;2022-12-05T02:56:52;4.10;99.90
15328;DHT22;7764;51.430;6.840;2022-12-05T02:59:20;4.10;99.90
15328;DHT22;7764;51.430;6.840;2022-12-05T03:01:46;4.00;99.90
15328;DHT22;7764;51.430;6.840;2022-12-05T03:04:16;4.10;99.90
15328;DHT22;7764;51.430;6.840;2022-12-05T03:06:47;4.00;99.90
15328;DHT22;7764;51.430;6.840;2022-12-05T03:09:18;4.10;99.90
15328;DHT22;7764;51.430;6.840;2022-12-05T03:11:50;4.10;99.90
15328;DHT22;7764;51.430;6.840;2022-12-05T03:14:21;4.10;99.90
15328;DHT22;7764;51.430;6.840;2022-12-05T03:16:51;4.10;99.90
15328;DHT22;7764;51.430;6.840;2022-12-05T03:19:25;4.10;99.90
15328;DHT22;7764;51.430;6.840;2022-12-05T03:21:55;4.10;99.90
15328;DHT22;7764;51.430;6.840;2022-12-05T03:24:25;4.10;99.90
15328;DHT22;7764;51.430;6.840;2022-12-05T03:26:57;4.10;99.90
15328;DHT22;7764;51.430;6.840;2022-12-05T03:29:32;4.10;99.90
15328;DHT22;7764;51.430;6.840;2022-12-05T03:32:06;4.10;99.90
15328;DHT22;7764;51.430;6.840;2022-12-05T03:34:44;4.00;99.90
15328;DHT22;7764;51.430;6.840;2022-12-05T03:37:21;4.00;99.90
15328;DHT22;7764;51.430;6.840;2022-12-05T03:39:58;4.10;99.90
15328;DHT22;7764;51.430;6.840;2022-12-05T03:42:32;4.10;99.90
15328;DHT22;7764;51.430;6.840;2022-12-05T03:45:06;4.10;99.90
15328;DHT22;7764;51.430;6.840;2022-12-05T03:47:39;4.10;99.90
15328;DHT22;7764;51.430;6.840;2022-12-05T03:50:12;4.10;99.90
15328;DHT22;7764;51.430;6.840;2022-12-05T03:52:44;4.10;99.90
15328;DHT22;7764;51.430;6.840;2022-12-05T03:55:12;4.10;99.90
15328;DHT22;7764;51.430;6.840;2022-12-05T03:57:42;4.10;99.90
15328;DHT22;7764;51.430;6.840;2022-12-05T04:00:12;4.00;99.90
15328;DHT22;7764;51.430;6.840;2022-12-05T04:02:43;4.00;99.90
15328;DHT22;7764;51.430;6.840;2022-12-05T04:05:17;4.00;99.90
15328;DHT22;7764;51.430;6.840;2022-12-05T04:07:48;4.00;99.90
15328;DHT22;7764;51.430;6.840;2022-12-05T04:10:21;4.10;99.90
15328;DHT22;7764;51.430;6.840;2022-12-05T04:12:51;4.10;99.90
15328;DHT22;7764;51.430;6.840;2022-12-05T04:15:24;4.10;99.90
15328;DHT22;7764;51.430;6.840;2022-12-05T04:18:15;4.10;99.90
15328;DHT22;7764;51.430;6.840;2022-12-05T04:20:46;4.10;99.90
15328;DHT22;7764;51.430;6.840;2022-12-05T04:23:32;4.00;99.90
15328;DHT22;7764;51.430;6.840;2022-12-05T04:26:07;4.10;99.90
15328;DHT22;7764;51.430;6.840;2022-12-05T04:28:40;4.10;99.90
15328;DHT22;7764;51.430;6.840;2022-12-05T04:31:15;4.00;99.90
15328;DHT22;7764;51.430;6.840;2022-12-05T04:33:45;4.00;99.90
15328;DHT22;7764;51.430;6.840;2022-12-05T04:36:19;4.10;99.90
15328;DHT22;7764;51.430;6.840;2022-12-05T04:38:50;4.10;99.90
15328;DHT22;7764;51.430;6.840;2022-12-05T04:41:21;4.00;99.90
15328;DHT22;7764;51.430;6.840;2022-12-05T04:43:49;4.10;99.90
15328;DHT22;7764;51.430;6.840;2022-12-05T04:46:18;4.00;99.90
15328;DHT22;7764;51.430;6.840;2022-12-05T04:48:48;4.00;99.90
15328;DHT22;7764;51.430;6.840;2022-12-05T04:51:22;4.00;99.90
15328;DHT22;7764;51.430;6.840;2022-12-05T04:53:53;4.00;99.90
15328;DHT22;7764;51.430;6.840;2022-12-05T04:56:23;4.00;99.90
15328;DHT22;7764;51.430;6.840;2022-12-05T04:58:52;4.10;99.90
15328;DHT22;7764;51.430;6.840;2022-12-05T05:01:21;4.00;99.90
15328;DHT22;7764;51.430;6.840;2022-12-05T05:03:52;4.10;99.90
15328;DHT22;7764;51.430;6.840;2022-12-05T05:06:21;4.10;99.90
15328;DHT22;7764;51.430;6.840;2022-12-05T05:08:50;4.10;99.90
15328;DHT22;7764;51.430;6.840;2022-12-05T05:11:20;4.10;99.90
15328;DHT22;7764;51.430;6.840;2022-12-05T05:13:47;4.10;99.90
15328;DHT22;7764;51.430;6.840;2022-12-05T05:16:15;4.10;99.90
15328;DHT22;7764;51.430;6.840;2022-12-05T05:18:43;4.10;99.90
15328;DHT22;7764;51.430;6.840;2022-12-05T05:21:18;4.10;99.90
15328;DHT22;7764;51.430;6.840;2022-12-05T05:23:47;4.00;99.90
15328;DHT22;7764;51.430;6.840;2022-12-05T05:26:14;4.00;99.90
15328;DHT22;7764;51.430;6.840;2022-12-05T05:28:41;4.10;99.90
15328;DHT22;7764;51.430;6.840;2022-12-05T05:31:08;4.10;99.90
15328;DHT22;7764;51.430;6.840;2022-12-05T05:33:35;4.10;99.90
15328;DHT22;7764;51.430;6.840;2022-12-05T05:36:03;4.10;99.90
15328;DHT22;7764;51.430;6.840;2022-12-05T05:38:34;4.10;99.90
15328;DHT22;7764;51.430;6.840;2022-12-05T05:41:05;4.10;99.90
15328;DHT22;7764;51.430;6.840;2022-12-05T05:43:32;4.10;99.90
15328;DHT22;7764;51.430;6.840;2022-12-05T05:46:02;4.10;99.90
15328;DHT22;7764;51.430;6.840;2022-12-05T05:48:29;4.10;99.90
15328;DHT22;7764;51.430;6.840;2022-12-05T05:50:57;4.10;99.90
15328;DHT22;7764;51.430;6.840;2022-12-05T05:53:24;4.10;99.90
15328;DHT22;7764;51.430;6.840;2022-12-05T05:55:52;4.10;99.90
15328;DHT22;7764;51.430;6.840;2022-12-05T05:58:20;4.10;99.90
15328;DHT22;7764;51.430;6.840;2022-12-05T06:00:47;4.10;99.90
15328;DHT22;7764;51.430;6.840;2022-12-05T06:03:14;4.10;99.90
15328;DHT22;7764;51.430;6.840;2022-12-05T06:05:41;4.10;99.90
15328;DHT22;7764;51.430;6.840;2022-12-05T06:08:08;4.10;99.90
15328;DHT22;7764;51.430;6.840;2022-12-05T06:10:37;4.10;99.90
15328;DHT22;7764;51.430;6.840;2022-12-05T06:13:04;4.10;99.90
15328;DHT22;7764;51.430;6.840;2022-12-05T06:15:32;4.10;99.90
15328;DHT22;7764;51.430;6.840;2022-12-05T06:17:58;4.10;99.90
15328;DHT22;7764;51.430;6.840;2022-12-05T06:20:25;4.10;99.90
15328;DHT22;7764;51.430;6.840;2022-12-05T06:22:52;4.10;99.90
15328;DHT22;7764;51.430;6.840;2022-12-05T06:25:19;4.10;99.90
15328;DHT22;7764;51.430;6.840;2022-12-05T06:27:46;4.10;99.90
15328;DHT22;7764;51.430;6.840;2022-12-05T06:30:13;4.10;99.90
15328;DHT22;7764;51.430;6.840;2022-12-05T06:32:41;4.00;99.90
15328;DHT22;7764;51.430;6.840;2022-12-05T06:35:08;4.00;99.90
15328;DHT22;7764;51.430;6.840;2022-12-05T06:37:40;4.00;99.90
15328;DHT22;7764;51.430;6.840;2022-12-05T06:40:08;4.00;99.90
15328;DHT22;7764;51.430;6.840;2022-12-05T06:42:35;4.10;99.90
15328;DHT22;7764;51.430;6.840;2022-12-05T06:45:02;4.00;99.90
15328;DHT22;7764;51.430;6.840;2022-12-05T06:47:29;4.10;99.90
15328;DHT22;7764;51.430;6.840;2022-12-05T06:49:57;4.10;99.90
15328;DHT22;7764;51.430;6.840;2022-12-05T06:52:24;4.10;99.90
15328;DHT22;7764;51.430;6.840;2022-12-05T06:54:50;4.10;99.90
15328;DHT22;7764;51.430;6.840;2022-12-05T06:57:18;4.10;99.90
15328;DHT22;7764;51.430;6.840;2022-12-05T06:59:45;4.10;99.90
15328;DHT22;7764;51.430;6.840;2022-12-05T07:02:12;4.10;99.90
15328;DHT22;7764;51.430;6.840;2022-12-05T07:04:38;4.10;99.90
15328;DHT22;7764;51.430;6.840;2022-12-05T07:07:06;4.10;99.90
15328;DHT22;7764;51.430;6.840;2022-12-05T07:09:33;4.20;99.90
15328;DHT22;7764;51.430;6.840;2022-12-05T07:12:14;4.20;99.90
15328;DHT22;7764;51.430;6.840;2022-12-05T07:14:41;4.20;99.90
15328;DHT22;7764;51.430;6.840;2022-12-05T07:17:08;4.10;99.90
15328;DHT22;7764;51.430;6.840;2022-12-05T07:19:35;4.20;99.90
15328;DHT22;7764;51.430;6.840;2022-12-05T07:22:03;4.10;99.90
15328;DHT22;7764;51.430;6.840;2022-12-05T07:24:31;4.10;99.90
15328;DHT22;7764;51.430;6.840;2022-12-05T07:26:58;4.00;99.90
15328;DHT22;7764;51.430;6.840;2022-12-05T07:29:25;4.10;99.90
15328;DHT22;7764;51.430;6.840;2022-12-05T07:31:52;4.10;99.90
15328;DHT22;7764;51.430;6.840;2022-12-05T07:34:19;4.10;99.90
15328;DHT22;7764;51.430;6.840;2022-12-05T07:36:46;4.10;99.90
15328;DHT22;7764;51.430;6.840;2022-12-05T07:39:13;4.10;99.90
15328;DHT22;7764;51.430;6.840;2022-12-05T07:41:42;4.10;99.90
15328;DHT22;7764;51.430;6.840;2022-12-05T07:44:10;4.10;99.90
15328;DHT22;7764;51.430;6.840;2022-12-05T07:46:37;4.10;99.90
15328;DHT22;7764;51.430;6.840;2022-12-05T07:49:05;4.10;99.90
15328;DHT22;7764;51.430;6.840;2022-12-05T07:51:32;4.10;99.90
15328;DHT22;7764;51.430;6.840;2022-12-05T07:54:00;4.10;99.90
15328;DHT22;7764;51.430;6.840;2022-12-05T07:56:27;4.10;99.90
15328;DHT22;7764;51.430;6.840;2022-12-05T07:58:55;4.20;99.90
15328;DHT22;7764;51.430;6.840;2022-12-05T08:01:23;4.10;99.90
15328;DHT22;7764;51.430;6.840;2022-12-05T08:03:52;4.00;99.90
15328;DHT22;7764;51.430;6.840;2022-12-05T08:06:22;4.00;99.90
15328;DHT22;7764;51.430;6.840;2022-12-05T08:08:50;3.90;99.90
15328;DHT22;7764;51.430;6.840;2022-12-05T08:11:19;3.90;99.90
15328;DHT22;7764;51.430;6.840;2022-12-05T08:13:47;3.90;99.90
15328;DHT22;7764;51.430;6.840;2022-12-05T08:16:17;3.80;99.90
15328;DHT22;7764;51.430;6.840;2022-12-05T08:18:44;3.80;99.90
15328;DHT22;7764;51.430;6.840;2022-12-05T08:21:13;3.80;99.90
15328;DHT22;7764;51.430;6.840;2022-12-05T08:23:41;3.70;99.90
15328;DHT22;7764;51.430;6.840;2022-12-05T08:26:12;3.70;99.90
15328;DHT22;7764;51.430;6.840;2022-12-05T08:28:40;3.70;99.90
15328;DHT22;7764;51.430;6.840;2022-12-05T08:31:09;3.70;99.90
15328;DHT22;7764;51.430;6.840;2022-12-05T08:33:38;3.70;99.90
15328;DHT22;7764;51.430;6.840;2022-12-05T08:36:07;3.60;99.90
15328;DHT22;7764;51.430;6.840;2022-12-05T08:38:36;3.70;99.90
15328;DHT22;7764;51.430;6.840;2022-12-05T08:41:05;3.70;99.90
15328;DHT22;7764;51.430;6.840;2022-12-05T08:43:33;3.70;99.90
15328;DHT22;7764;51.430;6.840;2022-12-05T08:46:00;3.70;99.90
15328;DHT22;7764;51.430;6.840;2022-12-05T08:48:30;3.70;99.90
15328;DHT22;7764;51.430;6.840;2022-12-05T08:51:04;3.60;99.90
15328;DHT22;7764;51.430;6.840;2022-12-05T08:53:32;3.70;99.90
15328;DHT22;7764;51.430;6.840;2022-12-05T08:56:00;3.60;99.90
15328;DHT22;7764;51.430;6.840;2022-12-05T08:58:27;3.70;99.90
15328;DHT22;7764;51.430;6.840;2022-12-05T09:01:03;3.60;99.90
15328;DHT22;7764;51.430;6.840;2022-12-05T09:03:30;3.60;99.90
15328;DHT22;7764;51.430;6.840;2022-12-05T09:06:06;3.60;99.90
15328;DHT22;7764;51.430;6.840;2022-12-05T09:08:34;3.60;99.90
15328;DHT22;7764;51.430;6.840;2022-12-05T09:11:04;3.60;99.90
15328;DHT22;7764;51.430;6.840;2022-12-05T09:13:32;3.60;99.90
15328;DHT22;7764;51.430;6.840;2022-12-05T09:16:03;3.60;99.90
15328;DHT22;7764;51.430;6.840;2022-12-05T09:18:31;3.60;99.90
15328;DHT22;7764;51.430;6.840;2022-12-05T09:21:05;3.60;99.90
15328;DHT22;7764;51.430;6.840;2022-12-05T09:23:32;3.60;99.90
15328;DHT22;7764;51.430;6.840;2022-12-05T09:25:59;3.70;99.90
15328;DHT22;7764;51.430;6.840;2022-12-05T09:28:27;3.60;99.90
15328;DHT22;7764;51.430;6.840;2022-12-05T09:30:57;3.60;99.90
15328;DHT22;7764;51.430;6.840;2022-12-05T09:33:26;3.60;99.90
15328;DHT22;7764;51.430;6.840;2022-12-05T09:35:53;3.70;99.90
15328;DHT22;7764;51.430;6.840;2022-12-05T09:38:23;3.70;99.90
15328;DHT22;7764;51.430;6.840;2022-12-05T09:40:55;3.70;99.90
15328;DHT22;7764;51.430;6.840;2022-12-05T09:43:30;3.70;99.90
15328;DHT22;7764;51.430;6.840;2022-12-05T09:46:08;3.70;99.90
15328;DHT22;7764;51.430;6.840;2022-12-05T09:48:40;3.70;99.90
15328;DHT22;7764;51.430;6.840;2022-12-05T09:51:10;3.80;99.90
15328;DHT22;7764;51.430;6.840;2022-12-05T09:53:40;3.80;99.90
15328;DHT22;7764;51.430;6.840;2022-12-05T09:56:14;3.80;99.90
15328;DHT22;7764;51.430;6.840;2022-12-05T09:58:45;3.80;99.90
15328;DHT22;7764;51.430;6.840;2022-12-05T10:01:30;3.80;99.90
15328;DHT22;7764;51.430;6.840;2022-12-05T10:04:11;3.70;99.90
15328;DHT22;7764;51.430;6.840;2022-12-05T10:06:49;3.70;99.90
15328;DHT22;7764;51.430;6.840;2022-12-05T10:09:33;3.80;99.90
15328;DHT22;7764;51.430;6.840;2022-12-05T10:12:15;3.80;99.90
15328;DHT22;7764;51.430;6.840;2022-12-05T10:14:49;3.90;99.90
15328;DHT22;7764;51.430;6.840;2022-12-05T10:17:25;3.90;99.90
15328;DHT22;7764;51.430;6.840;2022-12-05T10:19:58;3.90;99.90
15328;DHT22;7764;51.430;6.840;2022-12-05T10:22:28;3.90;99.90
15328;DHT22;7764;51.430;6.840;2022-12-05T10:25:02;3.90;99.90
15328;DHT22;7764;51.430;6.840;2022-12-05T10:27:34;3.90;99.90
15328;DHT22;7764;51.430;6.840;2022-12-05T10:30:05;3.90;99.90
15328;DHT22;7764;51.430;6.840;2022-12-05T10:32:38;3.80;99.90
15328;DHT22;7764;51.430;6.840;2022-12-05T10:35:15;3.80;99.90
15328;DHT22;7764;51.430;6.840;2022-12-05T10:37:46;3.80;99.90
15328;DHT22;7764;51.430;6.840;2022-12-05T10:40:16;3.80;99.90
15328;DHT22;7764;51.430;6.840;2022-12-05T10:42:43;3.80;99.90
15328;DHT22;7764;51.430;6.840;2022-12-05T10:45:15;3.80;99.90
15328;DHT22;7764;51.430;6.840;2022-12-05T10:47:42;3.80;99.90
15328;DHT22;7764;51.430;6.840;2022-12-05T10:50:21;3.90;99.90
15328;DHT22;7764;51.430;6.840;2022-12-05T10:52:50;3.80;99.90
15328;DHT22;7764;51.430;6.840;2022-12-05T10:55:21;3.70;99.90
15328;DHT22;7764;51.430;6.840;2022-12-05T10:58:08;3.80;99.90
15328;DHT22;7764;51.430;6.840;2022-12-05T11:00:36;3.80;99.90
15328;DHT22;7764;51.430;6.840;2022-12-05T11:03:22;3.80;99.90
15328;DHT22;7764;51.430;6.840;2022-12-05T11:05:51;3.90;99.90
15328;DHT22;7764;51.430;6.840;2022-12-05T11:08:24;3.90;99.90
15328;DHT22;7764;51.430;6.840;2022-12-05T11:11:00;3.90;99.90
15328;DHT22;7764;51.430;6.840;2022-12-05T11:13:28;3.90;99.90
15328;DHT22;7764;51.430;6.840;2022-12-05T11:15:55;3.90;99.90
15328;DHT22;7764;51.430;6.840;2022-12-05T11:18:28;3.90;99.90
15328;DHT22;7764;51.430;6.840;2022-12-05T11:21:08;3.90;99.90
15328;DHT22;7764;51.430;6.840;2022-12-05T11:23:38;3.80;99.90
15328;DHT22;7764;51.430;6.840;2022-12-05T11:26:16;3.90;99.90
15328;DHT22;7764;51.430;6.840;2022-12-05T11:28:45;3.80;99.90
15328;DHT22;7764;51.430;6.840;2022-12-05T11:31:25;3.80;99.90
15328;DHT22;7764;51.430;6.840;2022-12-05T11:34:01;3.70;99.90
15328;DHT22;7764;51.430;6.840;2022-12-05T11:36:36;3.70;99.90
15328;DHT22;7764;51.430;6.840;2022-12-05T11:39:03;3.70;99.90
15328;DHT22;7764;51.430;6.840;2022-12-05T11:41:41;3.60;99.90
15328;DHT22;7764;51.430;6.840;2022-12-05T11:47:24;3.50;99.90
15328;DHT22;7764;51.430;6.840;2022-12-05T11:50:16;3.50;99.90
15328;DHT22;7764;51.430;6.840;2022-12-05T11:52:53;3.50;99.90
15328;DHT22;7764;51.430;6.840;2022-12-05T11:55:24;3.50;99.90
15328;DHT22;7764;51.430;6.840;2022-12-05T12:01:00;3.60;99.90
15328;DHT22;7764;51.430;6.840;2022-12-05T12:06:37;3.50;99.90
15328;DHT22;7764;51.430;6.840;2022-12-05T12:09:27;3.40;99.90
15328;DHT22;7764;51.430;6.840;2022-12-05T12:12:02;3.40;99.90
15328;DHT22;7764;51.430;6.840;2022-12-05T12:14:39;3.40;99.90
15328;DHT22;7764;51.430;6.840;2022-12-05T12:17:15;3.30;99.90
15328;DHT22;7764;51.430;6.840;2022-12-05T12:19:59;3.40;99.90
15328;DHT22;7764;51.430;6.840;2022-12-05T12:22:41;3.40;99.90
15328;DHT22;7764;51.430;6.840;2022-12-05T12:25:22;3.30;99.90
15328;DHT22;7764;51.430;6.840;2022-12-05T12:27:58;3.30;99.90
15328;DHT22;7764;51.430;6.840;2022-12-05T12:30:42;3.30;99.90
15328;DHT22;7764;51.430;6.840;2022-12-05T12:33:14;3.30;99.90
15328;DHT22;7764;51.430;6.840;2022-12-05T12:35:46;3.30;99.90
15328;DHT22;7764;51.430;6.840;2022-12-05T12:38:42;3.30;99.90
15328;DHT22;7764;51.430;6.840;2022-12-05T12:41:23;3.40;99.90
15328;DHT22;7764;51.430;6.840;2022-12-05T12:44:02;3.40;99.90
15328;DHT22;7764;51.430;6.840;2022-12-05T12:46:42;3.40;99.90
15328;DHT22;7764;51.430;6.840;2022-12-05T12:49:24;3.30;99.90
15328;DHT22;7764;51.430;6.840;2022-12-05T12:52:00;3.20;99.90
15328;DHT22;7764;51.430;6.840;2022-12-05T12:57:24;3.30;99.90
15328;DHT22;7764;51.430;6.840;2022-12-05T13:00:01;3.30;99.90
15328;DHT22;7764;51.430;6.840;2022-12-05T13:02:35;3.20;99.90
15328;DHT22;7764;51.430;6.840;2022-12-05T13:05:10;3.20;99.90
15328;DHT22;7764;51.430;6.840;2022-12-05T13:07:45;3.20;99.90
15328;DHT22;7764;51.430;6.840;2022-12-05T13:10:17;3.20;99.90
15328;DHT22;7764;51.430;6.840;2022-12-05T13:12:46;3.10;99.90
15328;DHT22;7764;51.430;6.840;2022-12-05T13:15:15;3.20;99.90
15328;DHT22;7764;51.430;6.840;2022-12-05T13:17:46;3.20;99.90
15328;DHT22;7764;51.430;6.840;2022-12-05T13:20:16;3.20;99.90
15328;DHT22;7764;51.430;6.840;2022-12-05T13:22:44;3.20;99.90
15328;DHT22;7764;51.430;6.840;2022-12-05T13:25:16;3.30;99.90
15328;DHT22;7764;51.430;6.840;2022-12-05T13:27:53;3.30;99.90
15328;DHT22;7764;51.430;6.840;2022-12-05T13:30:21;3.30;99.90
15328;DHT22;7764;51.430;6.840;2022-12-05T13:32:56;3.30;99.90
15328;DHT22;7764;51.430;6.840;2022-12-05T13:35:29;3.30;99.90
15328;DHT22;7764;51.430;6.840;2022-12-05T13:38:26;3.30;99.90
15328;DHT22;7764;51.430;6.840;2022-12-05T13:41:11;3.30;99.90
15328;DHT22;7764;51.430;6.840;2022-12-05T13:43:55;3.30;99.90
15328;DHT22;7764;51.430;6.840;2022-12-05T13:46:26;3.30;99.90
15328;DHT22;7764;51.430;6.840;2022-12-05T13:49:02;3.20;99.90
15328;DHT22;7764;51.430;6.840;2022-12-05T13:51:33;3.20;99.90
15328;DHT22;7764;51.430;6.840;2022-12-05T13:54:05;3.30;99.90
15328;DHT22;7764;51.430;6.840;2022-12-05T13:56:49;3.20;99.90
15328;DHT22;7764;51.430;6.840;2022-12-05T14:02:45;3.20;99.90
15328;DHT22;7764;51.430;6.840;2022-12-05T14:05:35;3.10;99.90
15328;DHT22;7764;51.430;6.840;2022-12-05T14:11:11;3.00;99.90
15328;DHT22;7764;51.430;6.840;2022-12-05T14:13:40;3.00;99.90
15328;DHT22;7764;51.430;6.840;2022-12-05T14:25:35;2.80;99.90
15328;DHT22;7764;51.430;6.840;2022-12-05T14:28:15;2.80;99.90
15328;DHT22;7764;51.430;6.840;2022-12-05T14:30:49;2.70;99.90
15328;DHT22;7764;51.430;6.840;2022-12-05T14:33:21;2.70;99.90
15328;DHT22;7764;51.430;6.840;2022-12-05T14:35:50;2.70;99.90
15328;DHT22;7764;51.430;6.840;2022-12-05T14:38:25;2.60;99.90
15328;DHT22;7764;51.430;6.840;2022-12-05T14:40:56;2.60;99.90
15328;DHT22;7764;51.430;6.840;2022-12-05T14:43:36;2.60;99.90
15328;DHT22;7764;51.430;6.840;2022-12-05T14:46:06;2.60;99.90
15328;DHT22;7764;51.430;6.840;2022-12-05T14:48:36;2.50;99.90
15328;DHT22;7764;51.430;6.840;2022-12-05T14:51:43;2.50;99.90
15328;DHT22;7764;51.430;6.840;2022-12-05T14:54:14;2.50;99.90
15328;DHT22;7764;51.430;6.840;2022-12-05T14:56:43;2.50;99.90
15328;DHT22;7764;51.430;6.840;2022-12-05T14:59:22;2.50;99.90
15328;DHT22;7764;51.430;6.840;2022-12-05T15:01:53;2.60;99.90
15328;DHT22;7764;51.430;6.840;2022-12-05T15:04:25;2.60;99.90
15328;DHT22;7764;51.430;6.840;2022-12-05T15:06:58;2.60;99.90
15328;DHT22;7764;51.430;6.840;2022-12-05T15:09:37;2.60;99.90
15328;DHT22;7764;51.430;6.840;2022-12-05T15:12:12;2.50;99.90
15328;DHT22;7764;51.430;6.840;2022-12-05T15:14:46;2.50;99.90
15328;DHT22;7764;51.430;6.840;2022-12-05T15:17:20;2.50;99.90
15328;DHT22;7764;51.430;6.840;2022-12-05T15:19:54;2.50;99.90
15328;DHT22;7764;51.430;6.840;2022-12-05T15:22:25;2.60;99.90
15328;DHT22;7764;51.430;6.840;2022-12-05T15:24:54;2.50;99.90
15328;DHT22;7764;51.430;6.840;2022-12-05T15:27:22;2.60;99.90
15328;DHT22;7764;51.430;6.840;2022-12-05T15:29:52;2.60;99.90
15328;DHT22;7764;51.430;6.840;2022-12-05T15:32:23;2.50;99.90
15328;DHT22;7764;51.430;6.840;2022-12-05T15:34:58;2.50;99.90
15328;DHT22;7764;51.430;6.840;2022-12-05T15:37:31;2.60;99.90
15328;DHT22;7764;51.430;6.840;2022-12-05T15:40:07;2.50;99.90
15328;DHT22;7764;51.430;6.840;2022-12-05T15:42:36;2.50;99.90
15328;DHT22;7764;51.430;6.840;2022-12-05T15:45:16;2.50;99.90
15328;DHT22;7764;51.430;6.840;2022-12-05T15:47:46;2.50;99.90
15328;DHT22;7764;51.430;6.840;2022-12-05T15:50:14;2.50;99.90
15328;DHT22;7764;51.430;6.840;2022-12-05T15:52:46;2.50;99.90
15328;DHT22;7764;51.430;6.840;2022-12-05T15:55:19;2.60;99.90
15328;DHT22;7764;51.430;6.840;2022-12-05T15:57:53;2.60;99.90
15328;DHT22;7764;51.430;6.840;2022-12-05T16:00:22;2.50;99.90
15328;DHT22;7764;51.430;6.840;2022-12-05T16:02:54;2.60;99.90
15328;DHT22;7764;51.430;6.840;2022-12-05T16:05:26;2.60;99.90
15328;DHT22;7764;51.430;6.840;2022-12-05T16:07:55;2.60;99.90
15328;DHT22;7764;51.430;6.840;2022-12-05T16:10:24;2.60;99.90
15328;DHT22;7764;51.430;6.840;2022-12-05T16:12:52;2.60;99.90
15328;DHT22;7764;51.430;6.840;2022-12-05T16:15:22;2.60;99.90
15328;DHT22;7764;51.430;6.840;2022-12-05T16:17:53;2.60;99.90
15328;DHT22;7764;51.430;6.840;2022-12-05T16:20:26;2.50;99.90
15328;DHT22;7764;51.430;6.840;2022-12-05T16:22:55;2.50;99.90
15328;DHT22;7764;51.430;6.840;2022-12-05T16:25:28;2.50;99.90
15328;DHT22;7764;51.430;6.840;2022-12-05T16:28:01;2.40;99.90
15328;DHT22;7764;51.430;6.840;2022-12-05T16:30:29;2.40;99.90
15328;DHT22;7764;51.430;6.840;2022-12-05T16:33:02;2.40;99.90
15328;DHT22;7764;51.430;6.840;2022-12-05T16:35:32;2.40;99.90
15328;DHT22;7764;51.430;6.840;2022-12-05T16:38:19;2.40;99.90
15328;DHT22;7764;51.430;6.840;2022-12-05T16:40:56;2.40;99.90
15328;DHT22;7764;51.430;6.840;2022-12-05T16:43:39;2.40;99.90
15328;DHT22;7764;51.430;6.840;2022-12-05T16:46:42;2.50;99.90
15328;DHT22;7764;51.430;6.840;2022-12-05T16:49:16;2.50;99.90
15328;DHT22;7764;51.430;6.840;2022-12-05T16:51:45;2.50;99.90
15328;DHT22;7764;51.430;6.840;2022-12-05T16:54:18;2.50;99.90
15328;DHT22;7764;51.430;6.840;2022-12-05T16:56:46;2.50;99.90
15328;DHT22;7764;51.430;6.840;2022-12-05T16:59:20;2.50;99.90
15328;DHT22;7764;51.430;6.840;2022-12-05T17:01:47;2.50;99.90
15328;DHT22;7764;51.430;6.840;2022-12-05T17:04:14;2.50;99.90